createdAt,value
2019-05-02T00:02:43.877Z,9.00
2019-05-02T00:08:49.164Z,8.90
2019-05-02T00:14:56.504Z,8.90
2019-05-02T00:21:01.530Z,8.80
2019-05-02T00:27:07.383Z,8.70
2019-05-02T00:33:35.888Z,8.60
2019-05-02T00:39:40.602Z,8.50
2019-05-02T00:45:45.152Z,8.50
2019-05-02T00:51:49.873Z,8.60
2019-05-02T00:57:55.768Z,8.60
2019-05-02T01:04:18.487Z,8.50
2019-05-02T01:10:23.274Z,8.40
2019-05-02T01:16:27.819Z,8.40
2019-05-02T01:22:32.375Z,8.30
2019-05-02T01:28:41.287Z,8.20
2019-05-02T01:34:48.985Z,8.00
2019-05-02T01:40:54.748Z,7.90
2019-05-02T01:47:00.065Z,7.70
2019-05-02T01:53:04.647Z,7.70
2019-05-02T01:59:09.202Z,7.70
2019-05-02T02:05:13.774Z,7.60
2019-05-02T02:11:18.360Z,7.50
2019-05-02T02:17:22.915Z,7.50
2019-05-02T02:23:39.276Z,7.50
2019-05-02T02:29:45.324Z,7.50
2019-05-02T02:35:51.885Z,7.40
2019-05-02T02:41:56.156Z,7.50
2019-05-02T02:48:02.596Z,7.60
2019-05-02T02:54:07.054Z,7.70
2019-05-02T03:00:12.141Z,7.90
2019-05-02T03:06:16.866Z,8.10
2019-05-02T03:12:21.254Z,8.40
2019-05-02T03:18:27.007Z,8.60
2019-05-02T03:24:36.414Z,8.70
2019-05-02T03:30:38.303Z,8.80
2019-05-02T03:36:43.031Z,8.80
2019-05-02T03:42:47.925Z,8.90
2019-05-02T03:49:05.788Z,8.90
2019-05-02T03:54:59.535Z,9.00
2019-05-02T04:01:04.157Z,8.90
2019-05-02T04:07:09.629Z,8.70
2019-05-02T04:13:14.912Z,8.60
2019-05-02T04:19:19.689Z,8.60
2019-05-02T04:25:28.065Z,8.60
2019-05-02T04:31:32.220Z,8.50
2019-05-02T04:37:41.140Z,8.50
2019-05-02T04:43:51.424Z,8.50
2019-05-02T04:49:52.023Z,8.50
2019-05-02T04:56:01.749Z,8.50
2019-05-02T05:02:02.694Z,8.50
2019-05-02T05:08:07.706Z,8.60
2019-05-02T05:14:12.461Z,8.60
2019-05-02T05:20:18.331Z,8.70
2019-05-02T05:26:23.730Z,8.90
2019-05-02T05:32:28.328Z,8.80
2019-05-02T05:38:35.883Z,8.80
2019-05-02T05:44:39.917Z,8.80
2019-05-02T05:50:44.650Z,8.80
2019-05-02T05:56:49.199Z,8.90
2019-05-02T06:03:01.395Z,9.10
2019-05-02T07:05:01.649Z,10.10
2019-05-02T07:11:06.643Z,10.30
2019-05-02T07:17:32.148Z,10.40
2019-05-02T07:23:37.720Z,10.50
2019-05-02T07:29:42.277Z,10.50
2019-05-02T07:35:46.913Z,10.60
2019-05-02T07:41:51.471Z,10.80
2019-05-02T07:47:56.030Z,10.90
2019-05-02T07:54:00.626Z,11.20
2019-05-02T08:00:11.418Z,11.00
2019-05-02T08:06:15.981Z,11.00
2019-05-02T08:12:20.672Z,10.70
2019-05-02T08:18:30.199Z,10.70
2019-05-02T08:24:33.146Z,10.70
2019-05-02T08:30:40.477Z,11.10
2019-05-02T08:36:47.377Z,11.20
2019-05-02T08:42:51.930Z,11.30
2019-05-02T08:48:56.496Z,11.20
2019-05-02T08:55:04.470Z,11.20
2019-05-02T09:01:09.091Z,11.40
2019-05-02T09:07:14.614Z,11.50
2019-05-02T09:13:25.972Z,11.70
2019-05-02T09:19:26.564Z,11.70
2019-05-02T09:25:32.430Z,11.70
2019-05-02T09:31:42.214Z,11.50
2019-05-02T09:37:43.701Z,11.20
2019-05-02T11:08:06.256Z,14.50
2019-05-02T11:14:16.089Z,14.10
2019-05-02T11:20:22.464Z,14.10
2019-05-02T11:26:27.167Z,14.80
2019-05-02T11:32:32.666Z,15.30
2019-05-02T11:38:47.178Z,15.70
2019-05-02T11:44:43.895Z,16.50
2019-05-02T11:50:48.448Z,17.60
2019-05-02T11:56:53.674Z,18.20
2019-05-02T12:03:14.713Z,18.00
2019-05-02T12:09:19.942Z,17.70
2019-05-02T12:15:24.648Z,17.90
2019-05-02T12:21:29.612Z,19.20
2019-05-02T12:27:34.259Z,20.40
2019-05-02T12:33:42.533Z,20.20
2019-05-02T12:39:46.806Z,21.00
2019-05-02T12:45:52.788Z,20.70
2019-05-02T12:51:57.687Z,21.10
2019-05-02T12:58:03.077Z,21.10
2019-05-02T13:04:09.593Z,20.00
2019-05-02T13:10:16.431Z,20.20
2019-05-02T13:16:22.686Z,20.50
2019-05-02T13:22:32.529Z,20.80
2019-05-02T13:28:37.388Z,21.70
2019-05-02T13:34:48.327Z,20.40
2019-05-02T13:40:51.756Z,19.10
2019-05-02T13:46:56.596Z,18.80
2019-05-02T13:53:02.665Z,18.90
2019-05-02T13:59:10.442Z,20.10
2019-05-02T14:05:16.349Z,20.50
2019-05-02T14:11:41.024Z,19.00
2019-05-02T14:17:44.805Z,18.40
2019-05-02T14:23:49.361Z,18.10
2019-05-02T14:29:53.995Z,17.70
2019-05-02T14:35:58.630Z,17.70
2019-05-02T14:42:03.408Z,17.50
2019-05-02T14:48:18.293Z,17.20
2019-05-02T14:54:14.535Z,16.80
2019-05-02T15:00:22.095Z,17.10
2019-05-02T15:06:26.418Z,17.40
2019-05-02T15:12:32.514Z,17.30
2019-05-02T15:18:37.428Z,17.20
2019-05-02T15:24:42.429Z,17.30
2019-05-02T15:30:49.560Z,17.10
2019-05-02T15:36:54.265Z,16.80
2019-05-02T15:43:02.867Z,16.60
2019-05-02T15:49:05.912Z,16.10
2019-05-02T15:55:11.606Z,15.90
2019-05-02T16:01:26.982Z,15.70
2019-05-02T16:07:32.650Z,15.70
2019-05-02T16:13:37.269Z,16.10
2019-05-02T16:19:43.531Z,16.80
2019-05-02T16:25:48.158Z,16.60
2019-05-02T16:31:55.044Z,17.20
2019-05-02T16:38:00.782Z,17.70
2019-05-02T16:44:06.274Z,17.00
2019-05-02T16:50:12.262Z,16.40
2019-05-02T16:56:16.884Z,16.00
2019-05-02T17:02:21.888Z,15.70
2019-05-02T17:08:34.064Z,15.50
2019-05-02T17:14:38.626Z,15.40
2019-05-02T17:20:47.031Z,15.20
2019-05-02T17:26:51.745Z,15.00
2019-05-02T17:32:56.079Z,14.50
2019-05-02T17:39:06.382Z,14.00
2019-05-02T17:45:10.337Z,13.40
2019-05-02T17:51:28.398Z,13.00
2019-05-02T17:57:33.377Z,12.60
2019-05-02T18:03:36.849Z,12.50
2019-05-02T18:09:41.891Z,12.30
2019-05-02T18:15:46.598Z,12.20
2019-05-02T18:21:52.647Z,12.10
2019-05-02T18:27:57.383Z,12.10
2019-05-02T18:34:01.966Z,12.00
2019-05-02T18:40:11.757Z,11.90
2019-05-02T18:46:16.105Z,11.90
2019-05-02T18:52:22.689Z,11.90
2019-05-02T18:58:27.226Z,11.70
2019-05-02T19:04:38.208Z,11.70
2019-05-02T19:10:44.720Z,11.60
2019-05-02T19:16:44.729Z,11.60
2019-05-02T19:22:54.774Z,11.50
2019-05-02T19:29:02.942Z,11.40
2019-05-02T19:35:08.002Z,11.20
2019-05-02T19:41:12.569Z,11.00
2019-05-02T19:47:17.706Z,10.90
2019-05-02T19:53:23.028Z,10.80
2019-05-02T19:59:29.687Z,10.80
2019-05-02T20:05:35.279Z,10.70
2019-05-02T20:11:40.275Z,10.70
2019-05-02T20:17:44.851Z,10.70
2019-05-02T20:23:49.641Z,10.80
2019-05-02T20:29:54.260Z,10.80
2019-05-02T20:35:58.877Z,10.80
2019-05-02T20:42:03.474Z,10.80
2019-05-02T20:48:08.380Z,10.80
2019-05-02T20:54:13.034Z,10.80
2019-05-02T21:00:28.030Z,10.80
2019-05-02T21:06:40.802Z,10.90
2019-05-02T21:12:41.899Z,10.90
2019-05-02T21:18:46.622Z,11.00
2019-05-02T21:24:52.827Z,11.10
2019-05-02T21:30:57.755Z,11.20
2019-05-02T21:37:02.551Z,11.10
2019-05-02T21:43:07.149Z,11.00
2019-05-02T21:49:13.541Z,11.00
2019-05-02T21:55:22.492Z,11.00
2019-05-02T22:01:27.721Z,11.00
2019-05-02T22:07:32.424Z,11.00
2019-05-02T22:13:37.158Z,11.00
2019-05-02T22:19:41.807Z,11.00
2019-05-02T22:25:46.388Z,11.00
2019-05-02T22:31:54.241Z,10.90
2019-05-02T22:38:07.893Z,10.90
2019-05-02T22:44:12.606Z,10.90
2019-05-02T22:50:17.259Z,10.80
2019-05-02T22:56:22.275Z,10.50
2019-05-02T23:02:26.882Z,10.20
2019-05-02T23:08:31.532Z,10.00
2019-05-02T23:14:36.119Z,9.90
2019-05-02T23:20:42.176Z,9.80
2019-05-02T23:26:57.213Z,9.80
2019-05-02T23:33:02.288Z,9.80
2019-05-02T23:39:10.031Z,9.70
2019-05-02T23:45:14.727Z,9.60
2019-05-02T23:51:19.556Z,9.60
2019-05-02T23:57:24.188Z,9.50
